createdAt,value
2023-02-22T00:00:25.150Z,12.97
2023-02-22T00:02:53.864Z,9.43
2023-02-22T00:05:24.988Z,11.93
2023-02-22T00:07:52.820Z,11.20
2023-02-22T00:10:21.036Z,8.00
2023-02-22T00:12:49.800Z,11.10
2023-02-22T00:15:19.228Z,13.50
2023-02-22T00:17:47.413Z,14.60
2023-02-22T00:20:18.763Z,11.40
2023-02-22T00:22:49.368Z,9.80
2023-02-22T00:25:18.356Z,10.30
2023-02-22T00:27:47.979Z,11.67
2023-02-22T00:30:19.124Z,9.97
2023-02-22T00:32:47.888Z,10.90
2023-02-22T00:35:16.350Z,8.50
2023-02-22T00:37:44.561Z,12.87
2023-02-22T00:40:17.142Z,14.50
2023-02-22T00:42:46.347Z,9.70
2023-02-22T00:45:16.426Z,11.03
2023-02-22T00:47:44.286Z,9.20
2023-02-22T00:50:12.463Z,8.57
2023-02-22T00:52:40.533Z,11.87
2023-02-22T00:55:11.139Z,9.17
2023-02-22T00:57:40.410Z,9.20
2023-02-22T01:00:12.897Z,7.03
2023-02-22T01:02:41.174Z,6.60
2023-02-22T01:05:12.521Z,12.33
2023-02-22T01:07:40.928Z,8.87
2023-02-22T01:10:10.028Z,8.00
2023-02-22T01:12:40.178Z,9.67
2023-02-22T01:15:12.239Z,10.23
2023-02-22T01:17:43.844Z,10.63
2023-02-22T01:20:13.486Z,9.00
2023-02-22T01:22:43.270Z,9.40
2023-02-22T01:25:12.609Z,13.17
2023-02-22T01:27:41.827Z,10.30
2023-02-22T01:30:12.283Z,7.57
2023-02-22T01:32:42.021Z,8.77
2023-02-22T01:35:18.485Z,7.97
2023-02-22T01:37:46.785Z,7.40
2023-02-22T01:40:20.364Z,7.10
2023-02-22T01:42:52.874Z,12.23
2023-02-22T01:45:43.815Z,10.00
2023-02-22T01:48:16.392Z,8.37
2023-02-22T01:50:52.750Z,8.63
2023-02-22T01:53:22.160Z,7.47
2023-02-22T01:55:50.382Z,10.57
2023-02-22T01:58:22.503Z,8.13
2023-02-22T02:00:50.480Z,8.17
2023-02-22T02:03:23.557Z,6.00
2023-02-22T02:05:53.902Z,8.50
2023-02-22T02:08:32.928Z,11.53
2023-02-22T02:11:01.001Z,11.53
2023-02-22T02:13:30.241Z,8.57
2023-02-22T02:15:58.251Z,9.83
2023-02-22T02:18:28.116Z,9.20
2023-02-22T02:21:31.947Z,8.83
2023-02-22T02:24:34.482Z,13.53
2023-02-22T02:27:09.820Z,9.47
2023-02-22T02:30:14.299Z,12.40
2023-02-22T02:32:54.851Z,10.43
2023-02-22T02:35:32.987Z,11.47
2023-02-22T02:38:07.356Z,8.47
2023-02-22T02:40:40.084Z,10.47
2023-02-22T02:43:13.753Z,11.57
2023-02-22T02:45:46.054Z,11.03
2023-02-22T02:48:16.968Z,10.43
2023-02-22T02:50:47.445Z,16.30
2023-02-22T02:53:19.553Z,12.30
2023-02-22T02:55:47.414Z,12.60
2023-02-22T02:58:19.718Z,10.93
2023-02-22T03:00:48.483Z,13.80
2023-02-22T03:03:37.759Z,12.43
2023-02-22T03:06:14.890Z,12.90
2023-02-22T03:08:45.360Z,11.00
2023-02-22T03:11:16.890Z,12.63
2023-02-22T03:13:52.997Z,13.10
2023-02-22T03:16:29.992Z,10.27
2023-02-22T03:19:06.937Z,14.83
2023-02-22T03:21:42.760Z,14.00
2023-02-22T03:24:14.823Z,10.93
2023-02-22T03:26:46.309Z,11.27
2023-02-22T03:29:16.741Z,10.77
2023-02-22T03:31:50.133Z,9.77
2023-02-22T03:34:27.920Z,11.53
2023-02-22T03:36:59.494Z,19.10
2023-02-22T03:39:31.162Z,15.07
2023-02-22T03:42:05.827Z,11.17
2023-02-22T03:44:34.354Z,10.80
2023-02-22T03:47:03.736Z,14.80
2023-02-22T03:49:36.357Z,12.60
2023-02-22T03:52:08.474Z,16.17
2023-02-22T03:54:38.245Z,16.00
2023-02-22T03:57:09.933Z,14.10
2023-02-22T03:59:41.143Z,11.90
2023-02-22T04:02:08.984Z,14.50
2023-02-22T04:04:38.705Z,12.60
2023-02-22T04:07:07.245Z,15.00
2023-02-22T04:09:35.226Z,13.10
2023-02-22T04:12:04.173Z,15.80
2023-02-22T04:14:37.876Z,15.43
2023-02-22T04:17:05.745Z,15.67
2023-02-22T04:19:33.679Z,17.37
2023-02-22T04:22:03.179Z,18.63
2023-02-22T04:24:34.983Z,16.83
2023-02-22T04:27:03.671Z,14.27
2023-02-22T04:29:33.150Z,21.10
2023-02-22T04:32:02.283Z,16.60
2023-02-22T04:34:30.262Z,16.70
2023-02-22T04:36:58.237Z,14.13
2023-02-22T04:39:27.536Z,13.13
2023-02-22T04:41:56.088Z,12.27
2023-02-22T04:44:23.994Z,14.37
2023-02-22T04:46:52.606Z,11.43
2023-02-22T04:49:20.770Z,14.33
2023-02-22T04:51:49.653Z,14.60
2023-02-22T04:54:22.464Z,14.23
2023-02-22T04:56:52.157Z,14.13
2023-02-22T04:59:20.457Z,18.50
2023-02-22T05:01:54.757Z,14.80
2023-02-22T05:04:22.895Z,16.53
2023-02-22T05:06:51.864Z,13.13
2023-02-22T05:09:20.874Z,10.40
2023-02-22T05:11:52.834Z,13.20
2023-02-22T05:14:20.723Z,12.70
2023-02-22T05:16:49.791Z,11.87
2023-02-22T05:19:17.776Z,12.87
2023-02-22T05:21:45.603Z,14.33
2023-02-22T05:24:13.467Z,13.40
2023-02-22T05:26:41.470Z,15.80
2023-02-22T05:29:10.797Z,14.50
2023-02-22T05:31:38.939Z,15.30
2023-02-22T05:34:07.281Z,16.00
2023-02-22T05:36:35.190Z,12.73
2023-02-22T05:39:03.297Z,15.27
2023-02-22T05:41:31.249Z,15.63
2023-02-22T05:43:59.162Z,14.10
2023-02-22T05:46:31.325Z,14.33
2023-02-22T05:48:59.270Z,16.70
2023-02-22T05:51:27.351Z,19.13
2023-02-22T05:53:55.310Z,17.93
2023-02-22T05:56:25.022Z,20.03
2023-02-22T05:58:52.982Z,19.23
2023-02-22T06:01:21.106Z,21.03
2023-02-22T06:03:50.704Z,18.70
2023-02-22T06:06:22.080Z,20.30
2023-02-22T06:08:50.326Z,18.70
2023-02-22T06:11:19.787Z,16.30
2023-02-22T06:13:50.958Z,21.03
2023-02-22T06:16:19.132Z,18.00
2023-02-22T06:18:47.084Z,23.13
2023-02-22T06:21:17.589Z,17.13
2023-02-22T06:23:45.742Z,15.90
2023-02-22T06:26:13.592Z,13.17
2023-02-22T06:28:41.542Z,15.57
2023-02-22T06:31:10.034Z,18.87
2023-02-22T06:33:37.905Z,19.07
2023-02-22T06:36:06.494Z,19.10
2023-02-22T06:38:35.712Z,22.80
2023-02-22T06:41:06.776Z,22.57
2023-02-22T06:43:34.616Z,21.23
2023-02-22T06:46:02.480Z,21.23
2023-02-22T06:48:30.391Z,22.67
2023-02-22T06:50:58.369Z,20.10
2023-02-22T06:53:26.244Z,16.83
2023-02-22T06:55:56.169Z,17.80
2023-02-22T06:58:24.094Z,21.57
2023-02-22T07:00:52.280Z,19.60
2023-02-22T07:03:20.256Z,19.30
2023-02-22T07:05:48.393Z,18.63
2023-02-22T07:08:16.240Z,20.93
2023-02-22T07:10:44.122Z,16.97
2023-02-22T07:13:13.332Z,20.40
2023-02-22T07:15:41.981Z,23.57
2023-02-22T07:18:09.826Z,25.83
2023-02-22T07:20:37.682Z,23.70
2023-02-22T07:23:06.036Z,19.60
2023-02-22T07:25:33.908Z,20.70
2023-02-22T07:28:01.768Z,14.73
2023-02-22T07:30:34.071Z,18.60
2023-02-22T07:33:04.111Z,19.63
2023-02-22T07:35:33.521Z,15.50
2023-02-22T07:38:01.381Z,17.30
2023-02-22T07:40:29.680Z,19.50
2023-02-22T07:42:59.518Z,15.20
2023-02-22T07:45:28.781Z,21.77
2023-02-22T07:47:58.382Z,16.53
2023-02-22T07:50:27.744Z,19.27
2023-02-22T07:52:58.523Z,17.20
2023-02-22T07:55:28.414Z,18.37
2023-02-22T07:57:58.831Z,16.43
2023-02-22T08:00:28.794Z,16.63
2023-02-22T08:02:58.428Z,15.87
2023-02-22T08:05:27.891Z,15.60
2023-02-22T08:07:56.372Z,19.40
2023-02-22T08:10:26.433Z,17.30
2023-02-22T08:12:55.031Z,16.87
2023-02-22T08:15:26.028Z,18.23
2023-02-22T08:17:54.470Z,21.97
2023-02-22T08:20:24.188Z,18.93
2023-02-22T08:22:52.497Z,17.83
2023-02-22T08:25:21.666Z,20.80
2023-02-22T08:27:49.881Z,22.50
2023-02-22T08:30:19.459Z,20.50
2023-02-22T08:32:48.006Z,20.70
2023-02-22T08:35:17.298Z,18.20
2023-02-22T08:37:47.705Z,20.73
2023-02-22T08:40:17.554Z,17.00
2023-02-22T08:42:45.528Z,26.63
2023-02-22T08:45:14.297Z,21.50
2023-02-22T08:47:42.450Z,20.83
2023-02-22T08:50:15.972Z,17.10
2023-02-22T08:52:43.907Z,19.63
2023-02-22T08:55:13.217Z,22.47
2023-02-22T08:57:41.053Z,20.03
2023-02-22T09:00:10.225Z,19.37
2023-02-22T09:02:38.410Z,20.40
2023-02-22T09:05:07.166Z,29.43
2023-02-22T09:07:35.056Z,19.73
2023-02-22T09:10:03.033Z,20.50
2023-02-22T09:12:32.353Z,23.27
2023-02-22T09:15:00.327Z,17.93
2023-02-22T09:17:28.168Z,17.27
2023-02-22T09:19:56.058Z,18.70
2023-02-22T09:22:23.941Z,17.57
2023-02-22T09:24:53.668Z,17.27
2023-02-22T09:27:21.538Z,23.23
2023-02-22T09:29:50.923Z,15.70
2023-02-22T09:32:19.108Z,22.90
2023-02-22T09:34:48.209Z,17.23
2023-02-22T09:37:17.709Z,19.80
2023-02-22T09:39:46.578Z,21.93
2023-02-22T09:42:18.032Z,17.03
2023-02-22T09:44:51.687Z,16.87
2023-02-22T09:47:21.578Z,16.70
2023-02-22T09:49:58.393Z,15.47
2023-02-22T09:52:29.105Z,15.17
2023-02-22T09:55:04.793Z,16.20
2023-02-22T09:57:36.221Z,18.10
2023-02-22T10:00:13.625Z,21.27
2023-02-22T10:02:50.392Z,15.63
2023-02-22T10:05:22.549Z,17.90
2023-02-22T10:07:55.529Z,18.07
2023-02-22T10:10:24.863Z,18.40
2023-02-22T10:12:57.804Z,21.60
2023-02-22T10:15:38.283Z,17.80
2023-02-22T10:18:55.129Z,19.47
2023-02-22T10:21:37.807Z,20.83
2023-02-22T10:24:11.540Z,16.77
2023-02-22T10:26:43.721Z,19.63
2023-02-22T10:29:17.725Z,17.70
2023-02-22T10:31:48.452Z,17.90
2023-02-22T10:34:19.904Z,18.57
2023-02-22T10:36:49.566Z,20.07
2023-02-22T10:39:23.853Z,16.33
2023-02-22T10:41:54.379Z,16.57
2023-02-22T10:44:22.332Z,23.57
2023-02-22T10:46:53.440Z,17.33
2023-02-22T10:49:23.452Z,18.50
2023-02-22T10:51:59.161Z,17.60
2023-02-22T10:54:30.292Z,18.47
2023-02-22T10:57:00.167Z,15.77
2023-02-22T10:59:30.787Z,22.23
2023-02-22T11:02:00.320Z,16.23
2023-02-22T11:04:28.894Z,22.63
2023-02-22T11:07:11.165Z,18.23
2023-02-22T11:09:57.942Z,17.63
2023-02-22T11:12:34.235Z,19.73
2023-02-22T11:15:29.512Z,17.97
2023-02-22T11:18:01.868Z,22.60
2023-02-22T11:20:34.696Z,23.33
2023-02-22T11:23:04.911Z,23.50
2023-02-22T11:25:35.085Z,18.50
2023-02-22T11:28:09.230Z,18.40
2023-02-22T11:30:38.340Z,15.03
2023-02-22T11:33:23.344Z,19.87
2023-02-22T11:35:53.312Z,15.07
2023-02-22T11:38:22.829Z,17.60
2023-02-22T11:41:09.161Z,17.87
2023-02-22T11:43:37.699Z,14.70
2023-02-22T11:46:08.506Z,17.40
2023-02-22T11:48:39.596Z,23.13
2023-02-22T11:51:24.243Z,17.63
2023-02-22T11:54:06.322Z,16.50
2023-02-22T11:56:39.933Z,17.23
2023-02-22T11:59:17.449Z,13.83
2023-02-22T12:01:48.387Z,16.03
2023-02-22T12:04:38.222Z,12.97
2023-02-22T12:07:30.109Z,15.03
2023-02-22T12:10:07.153Z,18.07
2023-02-22T12:12:43.022Z,11.77
2023-02-22T12:15:14.783Z,14.33
2023-02-22T12:18:00.036Z,15.53
2023-02-22T12:20:39.905Z,16.57
2023-02-22T12:23:19.648Z,12.53
2023-02-22T12:25:58.596Z,15.40
2023-02-22T12:28:31.957Z,16.43
2023-02-22T12:31:12.510Z,14.83
2023-02-22T12:33:48.897Z,19.80
2023-02-22T12:36:21.887Z,19.17
2023-02-22T12:38:53.462Z,15.10
2023-02-22T12:41:28.047Z,12.33
2023-02-22T12:44:01.415Z,15.23
2023-02-22T12:46:32.449Z,15.60
2023-02-22T12:49:06.236Z,13.53
2023-02-22T12:51:41.982Z,16.97
2023-02-22T12:54:15.837Z,14.13
2023-02-22T12:56:49.129Z,14.97
2023-02-22T12:59:20.730Z,17.10
2023-02-22T13:01:53.752Z,18.93
2023-02-22T13:04:22.244Z,22.87
2023-02-22T13:07:00.968Z,18.20
2023-02-22T13:09:43.560Z,14.83
2023-02-22T13:12:18.230Z,22.03
2023-02-22T13:14:56.059Z,13.37
2023-02-22T13:17:30.568Z,15.17
2023-02-22T13:20:01.358Z,15.70
2023-02-22T13:22:37.217Z,17.00
2023-02-22T13:25:12.058Z,16.90
2023-02-22T13:27:43.422Z,16.20
2023-02-22T13:30:21.464Z,15.63
2023-02-22T13:33:10.652Z,18.57
2023-02-22T13:36:01.038Z,13.80
2023-02-22T13:39:00.170Z,15.93
2023-02-22T13:41:50.797Z,15.07
2023-02-22T13:44:52.412Z,17.53
2023-02-22T13:47:38.888Z,15.60
2023-02-22T13:50:21.625Z,20.63
2023-02-22T13:52:50.430Z,17.60
2023-02-22T13:55:22.535Z,21.70
2023-02-22T13:57:51.783Z,18.70
2023-02-22T14:00:23.643Z,14.30
2023-02-22T14:03:03.132Z,17.60
2023-02-22T14:05:49.677Z,17.87
2023-02-22T14:08:47.939Z,14.00
2023-02-22T14:11:56.943Z,19.90
2023-02-22T14:14:25.846Z,15.03
2023-02-22T14:17:22.995Z,16.07
2023-02-22T14:20:20.508Z,14.57
2023-02-22T14:22:50.254Z,14.43
2023-02-22T14:25:39.520Z,14.67
2023-02-22T14:28:31.451Z,22.30
2023-02-22T14:31:07.731Z,14.73
2023-02-22T14:33:55.847Z,16.77
2023-02-22T14:36:26.714Z,15.43
2023-02-22T14:38:55.551Z,17.30
2023-02-22T14:41:26.552Z,16.97
2023-02-22T14:43:57.444Z,14.93
2023-02-22T14:46:28.808Z,14.33
2023-02-22T14:49:00.994Z,14.43
2023-02-22T14:51:32.909Z,17.77
2023-02-22T14:54:04.424Z,14.40
2023-02-22T14:56:36.530Z,13.17
2023-02-22T14:59:16.142Z,15.97
2023-02-22T15:01:58.434Z,15.30
2023-02-22T15:04:34.065Z,13.77
2023-02-22T15:07:09.817Z,16.43
2023-02-22T15:09:37.860Z,16.00
2023-02-22T15:12:14.414Z,15.73
2023-02-22T15:14:47.591Z,13.97
2023-02-22T15:17:19.379Z,15.87
2023-02-22T15:19:48.543Z,16.80
2023-02-22T15:22:21.570Z,16.13
2023-02-22T15:25:00.083Z,17.13
2023-02-22T15:27:28.672Z,20.60
2023-02-22T15:30:04.598Z,14.70
2023-02-22T15:32:36.168Z,16.73
2023-02-22T15:35:15.127Z,13.83
2023-02-22T15:37:44.411Z,17.00
2023-02-22T15:40:16.733Z,15.80
2023-02-22T15:42:47.022Z,15.83
2023-02-22T15:45:21.853Z,15.40
2023-02-22T15:47:50.646Z,17.60
2023-02-22T15:50:23.669Z,14.70
2023-02-22T15:52:58.200Z,15.77
2023-02-22T15:55:28.925Z,17.30
2023-02-22T15:57:59.471Z,17.80
2023-02-22T16:00:36.380Z,14.20
2023-02-22T16:03:05.412Z,18.00
2023-02-22T16:05:39.636Z,14.97
2023-02-22T16:08:15.664Z,19.07
2023-02-22T16:10:48.825Z,21.37
2023-02-22T16:13:31.038Z,21.73
2023-02-22T16:16:02.893Z,19.57
2023-02-22T16:18:33.765Z,17.00
2023-02-22T16:21:04.732Z,16.70
2023-02-22T16:23:35.560Z,16.27
2023-02-22T16:26:06.552Z,20.27
2023-02-22T16:28:36.059Z,17.70
2023-02-22T16:31:05.605Z,22.90
2023-02-22T16:33:35.062Z,20.20
2023-02-22T16:36:08.112Z,27.37
2023-02-22T16:38:38.589Z,26.23
2023-02-22T16:41:08.120Z,26.43
2023-02-22T16:43:36.612Z,31.43
2023-02-22T16:46:07.897Z,28.20
2023-02-22T16:48:38.350Z,28.67
2023-02-22T16:51:14.802Z,27.37
2023-02-22T16:53:42.747Z,25.60
2023-02-22T16:56:11.740Z,27.57
2023-02-22T16:58:41.543Z,27.60
2023-02-22T17:01:12.718Z,29.00
2023-02-22T17:03:40.737Z,34.93
2023-02-22T17:06:10.450Z,32.00
2023-02-22T17:08:38.642Z,30.10
2023-02-22T17:11:06.982Z,30.73
2023-02-22T17:13:36.448Z,32.13
2023-02-22T17:16:05.662Z,33.57
2023-02-22T17:18:35.799Z,32.47
2023-02-22T17:21:03.838Z,30.40
2023-02-22T17:23:31.931Z,33.33
2023-02-22T17:26:02.207Z,31.47
2023-02-22T17:28:30.979Z,32.40
2023-02-22T17:31:01.954Z,33.50
2023-02-22T17:33:32.975Z,30.40
2023-02-22T17:36:04.950Z,32.80
2023-02-22T17:38:34.583Z,30.00
2023-02-22T17:41:03.454Z,29.83
2023-02-22T17:43:31.810Z,31.33
2023-02-22T17:46:00.023Z,33.00
2023-02-22T17:48:28.293Z,30.77
2023-02-22T17:50:56.293Z,32.27
2023-02-22T17:53:25.940Z,40.43
2023-02-22T17:55:54.076Z,30.43
2023-02-22T17:58:23.657Z,33.37
2023-02-22T18:00:53.290Z,29.47
2023-02-22T18:03:25.460Z,34.80
2023-02-22T18:05:57.346Z,37.10
2023-02-22T18:08:28.030Z,38.80
2023-02-22T18:10:57.255Z,28.57
2023-02-22T18:13:27.906Z,31.40
2023-02-22T18:16:00.057Z,32.97
2023-02-22T18:18:28.480Z,38.73
2023-02-22T18:20:59.717Z,29.20
2023-02-22T18:23:31.100Z,38.80
2023-02-22T18:26:10.567Z,29.50
2023-02-22T18:28:49.171Z,36.00
2023-02-22T18:31:20.217Z,33.87
2023-02-22T18:33:49.940Z,30.07
2023-02-22T18:36:23.273Z,37.20
2023-02-22T18:38:54.500Z,30.03
2023-02-22T18:41:25.636Z,31.37
2023-02-22T18:43:55.399Z,29.73
2023-02-22T18:46:25.256Z,27.93
2023-02-22T18:48:54.505Z,33.43
2023-02-22T18:51:22.576Z,26.63
2023-02-22T18:53:56.807Z,28.70
2023-02-22T18:56:29.701Z,29.03
2023-02-22T18:58:59.790Z,32.57
2023-02-22T19:01:28.272Z,27.27
2023-02-22T19:03:56.742Z,32.40
2023-02-22T19:06:24.792Z,36.33
2023-02-22T19:08:54.093Z,29.70
2023-02-22T19:11:24.302Z,30.23
2023-02-22T19:13:54.124Z,27.43
2023-02-22T19:16:26.783Z,30.10
2023-02-22T19:18:57.233Z,25.53
2023-02-22T19:21:26.456Z,32.47
2023-02-22T19:24:02.810Z,32.30
2023-02-22T19:26:34.159Z,30.17
2023-02-22T19:29:06.293Z,29.40
2023-02-22T19:31:34.621Z,26.30
2023-02-22T19:34:04.180Z,28.97
2023-02-22T19:36:32.671Z,26.93
2023-02-22T19:39:02.630Z,26.63
2023-02-22T19:41:31.675Z,29.23
2023-02-22T19:43:59.872Z,30.73
2023-02-22T19:46:28.316Z,33.40
2023-02-22T19:48:56.682Z,31.17
2023-02-22T19:51:27.839Z,27.17
2023-02-22T19:53:59.024Z,29.63
2023-02-22T19:56:30.293Z,30.07
2023-02-22T19:59:00.797Z,25.23
2023-02-22T20:01:31.872Z,28.03
2023-02-22T20:04:01.680Z,27.83
2023-02-22T20:06:34.715Z,24.03
2023-02-22T20:09:03.863Z,30.50
2023-02-22T20:11:33.286Z,27.40
2023-02-22T20:14:01.999Z,25.97
2023-02-22T20:16:30.601Z,27.50
2023-02-22T20:18:58.556Z,28.33
2023-02-22T20:21:31.120Z,29.23
2023-02-22T20:23:59.360Z,31.83
2023-02-22T20:26:29.493Z,32.37
2023-02-22T20:28:59.985Z,30.53
2023-02-22T20:31:29.633Z,32.13
2023-02-22T20:33:59.494Z,27.70
2023-02-22T20:36:28.344Z,28.80
2023-02-22T20:38:58.101Z,30.10
2023-02-22T20:41:28.092Z,37.13
2023-02-22T20:43:58.055Z,28.73
2023-02-22T20:46:27.150Z,32.50
2023-02-22T20:48:56.406Z,36.43
2023-02-22T20:51:24.841Z,36.07
2023-02-22T20:53:53.217Z,33.60
2023-02-22T20:56:22.902Z,33.70
2023-02-22T20:58:51.105Z,31.03
2023-02-22T21:01:22.597Z,32.33
2023-02-22T21:03:51.308Z,34.50
2023-02-22T21:06:21.664Z,32.83
2023-02-22T21:08:53.564Z,33.67
2023-02-22T21:11:23.030Z,37.60
2023-02-22T21:13:51.086Z,34.40
2023-02-22T21:16:22.028Z,37.50
2023-02-22T21:18:51.674Z,32.47
2023-02-22T21:21:20.197Z,34.13
2023-02-22T21:23:51.133Z,38.37
2023-02-22T21:26:20.540Z,33.83
2023-02-22T21:28:51.373Z,32.60
2023-02-22T21:31:23.213Z,31.00
2023-02-22T21:33:52.659Z,39.23
2023-02-22T21:36:25.504Z,33.73
2023-02-22T21:38:55.470Z,32.40
2023-02-22T21:41:27.436Z,37.30
2023-02-22T21:43:56.351Z,36.00
2023-02-22T21:46:27.018Z,35.10
2023-02-22T21:48:54.943Z,36.20
2023-02-22T21:51:25.587Z,38.33
2023-02-22T21:53:55.656Z,35.13
2023-02-22T21:56:27.369Z,32.60
2023-02-22T21:58:59.158Z,38.60
2023-02-22T22:01:29.436Z,35.20
2023-02-22T22:03:59.793Z,36.77
2023-02-22T22:06:28.882Z,40.43
2023-02-22T22:08:57.312Z,34.83
2023-02-22T22:11:25.303Z,31.73
2023-02-22T22:13:57.582Z,41.90
2023-02-22T22:16:27.185Z,34.73
2023-02-22T22:18:57.305Z,35.93
2023-02-22T22:21:25.661Z,41.50
2023-02-22T22:23:56.117Z,37.90
2023-02-22T22:26:25.774Z,40.13
2023-02-22T22:28:57.426Z,38.47
2023-02-22T22:31:26.823Z,37.60
2023-02-22T22:33:55.429Z,39.00
2023-02-22T22:36:26.621Z,33.30
2023-02-22T22:38:57.302Z,34.83
2023-02-22T22:41:28.200Z,39.73
2023-02-22T22:43:56.599Z,40.83
2023-02-22T22:46:24.586Z,37.40
2023-02-22T22:48:52.523Z,37.73
2023-02-22T22:51:21.989Z,37.43
2023-02-22T22:53:53.008Z,36.50
2023-02-22T22:56:25.938Z,33.10
2023-02-22T22:58:55.294Z,38.00
2023-02-22T23:01:27.100Z,39.50
2023-02-22T23:03:56.588Z,37.73
2023-02-22T23:06:28.339Z,38.80
2023-02-22T23:09:00.352Z,40.60
2023-02-22T23:11:29.660Z,37.43
2023-02-22T23:13:57.624Z,39.17
2023-02-22T23:16:25.753Z,40.87
2023-02-22T23:18:53.719Z,43.20
2023-02-22T23:21:24.335Z,36.70
2023-02-22T23:23:56.051Z,39.60
2023-02-22T23:26:26.827Z,44.67
2023-02-22T23:28:56.630Z,41.50
2023-02-22T23:31:25.081Z,38.47
2023-02-22T23:33:52.952Z,44.43
2023-02-22T23:36:21.184Z,39.00
2023-02-22T23:38:50.045Z,42.13
2023-02-22T23:41:18.250Z,42.97
2023-02-22T23:43:47.673Z,58.13
2023-02-22T23:46:18.656Z,43.53
2023-02-22T23:48:51.405Z,41.47
2023-02-22T23:51:20.876Z,42.33
2023-02-22T23:53:49.572Z,43.23
2023-02-22T23:56:21.001Z,43.07
2023-02-22T23:58:51.915Z,46.33
